Time;durP1;ratioP1;P1;durP2;ratioP2;P2;SDS_P1;SDS_P2;PMS_P1;PMS_P2;Temp;Humidity;BMP_temperature;BMP_pressure;BME280_temperature;BME280_humidity;BME280_pressure;Samples;Min_cycle;Max_cycle;Signal;HPM_P1;HPM_P2
2022/10/25 00:01:12;;;;;;;5.97;3.97;;;11.70;99.90;;;;;;5155529;27;20209;-85
2022/10/25 00:03:44;;;;;;;5.28;3.75;;;11.70;99.90;;;;;;5153114;27;20251;-85
2022/10/25 00:06:12;;;;;;;3.38;1.80;;;11.70;99.90;;;;;;5146587;27;20326;-86
2022/10/25 00:08:39;;;;;;;5.55;3.28;;;11.60;99.90;;;;;;5159183;27;20286;-85
2022/10/25 00:11:54;;;;;;;4.00;3.00;;;11.40;99.90;;;;;;5149534;27;20200;-85
2022/10/25 00:14:54;;;;;;;5.90;1.80;;;11.40;99.90;;;;;;5160648;27;20245;-85
2022/10/25 00:17:36;;;;;;;6.63;4.43;;;11.30;99.90;;;;;;5150689;27;20733;-84
2022/10/25 00:20:48;;;;;;;6.03;2.97;;;11.30;99.90;;;;;;5147578;27;20729;-86
2022/10/25 00:23:26;;;;;;;4.05;3.28;;;11.30;99.90;;;;;;5147654;27;20278;-85
2022/10/25 00:26:01;;;;;;;6.70;2.63;;;11.30;99.90;;;;;;5143546;27;20278;-85
2022/10/25 00:28:28;;;;;;;3.45;2.65;;;11.30;99.90;;;;;;5154815;27;20200;-85
2022/10/25 00:31:01;;;;;;;2.85;2.42;;;11.30;99.90;;;;;;5156836;27;20284;-85
2022/10/25 00:33:54;;;;;;;7.78;4.45;;;11.20;99.90;;;;;;5165545;27;20302;-85
2022/10/25 00:36:26;;;;;;;2.50;1.80;;;11.20;99.90;;;;;;5147332;27;20293;-85
2022/10/25 00:39:08;;;;;;;5.35;4.32;;;11.00;99.90;;;;;;5156083;27;20281;-85
2022/10/25 00:41:36;;;;;;;3.63;2.60;;;11.10;99.90;;;;;;5149054;27;20270;-85
2022/10/25 00:44:40;;;;;;;4.32;3.15;;;11.10;99.90;;;;;;5162877;27;20273;-86
2022/10/25 00:47:25;;;;;;;2.30;1.98;;;11.10;99.90;;;;;;5156457;27;20288;-85
2022/10/25 00:49:58;;;;;;;2.63;1.77;;;11.00;99.90;;;;;;5153231;27;20197;-86
2022/10/25 00:52:26;;;;;;;6.28;3.67;;;11.00;99.90;;;;;;5157758;27;20273;-85
2022/10/25 00:54:59;;;;;;;3.60;1.42;;;11.00;99.90;;;;;;5146854;27;20297;-86
2022/10/25 00:57:34;;;;;;;5.28;1.75;;;10.90;99.90;;;;;;5145800;27;20194;-87
2022/10/25 01:00:13;;;;;;;3.00;1.50;;;10.70;99.90;;;;;;5149222;27;20272;-85
2022/10/25 01:02:40;;;;;;;3.10;1.73;;;10.50;99.90;;;;;;5159235;27;20260;-85
2022/10/25 01:05:09;;;;;;;2.13;1.92;;;10.50;99.90;;;;;;5147213;27;20214;-86
2022/10/25 01:07:43;;;;;;;1.50;1.40;;;10.60;99.90;;;;;;5153889;27;20290;-85
2022/10/25 01:10:31;;;;;;;7.60;1.90;;;10.60;99.90;;;;;;5149410;27;20201;-86
2022/10/25 01:13:01;;;;;;;3.85;2.60;;;10.60;99.90;;;;;;5148277;27;20283;-86
2022/10/25 01:15:36;;;;;;;4.05;3.10;;;10.60;99.90;;;;;;5147675;27;20216;-85
2022/10/25 01:18:28;;;;;;;2.15;1.60;;;10.70;99.90;;;;;;5165490;27;20204;-85
2022/10/25 01:21:25;;;;;;;3.80;2.55;;;10.80;99.90;;;;;;5145189;27;20278;-85
2022/10/25 01:24:09;;;;;;;2.53;2.30;;;10.80;99.90;;;;;;5146270;27;20613;-86
2022/10/25 01:27:06;;;;;;;3.83;1.70;;;10.70;99.90;;;;;;5153164;27;20277;-88
2022/10/25 01:30:03;;;;;;;1.90;1.40;;;10.60;99.90;;;;;;5143475;27;20191;-85
2022/10/25 01:33:02;;;;;;;2.28;1.38;;;10.40;99.90;;;;;;5154379;27;20198;-85
2022/10/25 01:35:56;;;;;;;3.13;1.35;;;10.30;99.90;;;;;;5151556;27;20587;-85
2022/10/25 01:38:47;;;;;;;1.75;1.40;;;10.20;99.90;;;;;;5147445;27;20277;-85
2022/10/25 01:41:21;;;;;;;4.00;2.20;;;10.10;99.90;;;;;;5144638;27;20536;-85
2022/10/25 01:43:59;;;;;;;1.52;1.40;;;10.10;99.90;;;;;;5141416;27;20525;-86
2022/10/25 01:46:48;;;;;;;4.75;1.33;;;10.10;99.90;;;;;;5147259;27;20191;-85
2022/10/25 01:52:44;;;;;;;5.20;1.92;;;10.10;99.90;;;;;;5144731;27;20206;-85
2022/10/25 01:55:14;;;;;;;2.67;2.10;;;10.20;99.90;;;;;;5149135;27;20285;-84
2022/10/25 01:58:03;;;;;;;3.75;1.60;;;10.30;99.90;;;;;;5150760;27;20204;-86
2022/10/25 02:00:39;;;;;;;2.78;2.00;;;10.40;99.90;;;;;;5153661;27;20277;-85
2022/10/25 02:03:17;;;;;;;5.95;1.42;;;10.40;99.90;;;;;;5153746;27;20294;-85
2022/10/25 02:05:56;;;;;;;2.45;1.38;;;10.50;99.90;;;;;;5148247;27;20206;-85
2022/10/25 02:08:35;;;;;;;1.73;1.17;;;10.50;99.90;;;;;;5153702;27;20299;-86
2022/10/25 02:11:13;;;;;;;2.78;1.40;;;10.40;99.90;;;;;;5145807;27;20187;-85
2022/10/25 02:13:52;;;;;;;1.65;1.40;;;10.50;99.90;;;;;;5142396;27;20314;-85
2022/10/25 02:16:44;;;;;;;4.45;1.20;;;10.50;99.90;;;;;;5155560;27;20195;-86
2022/10/25 02:19:15;;;;;;;2.80;1.48;;;10.40;99.90;;;;;;5146487;27;20302;-86
2022/10/25 02:21:43;;;;;;;2.35;1.45;;;10.30;99.90;;;;;;5150977;27;20286;-85
2022/10/25 02:24:23;;;;;;;2.45;1.10;;;10.40;99.90;;;;;;5150248;27;20266;-85
2022/10/25 02:26:51;;;;;;;3.00;1.52;;;10.50;99.90;;;;;;5159258;27;20209;-85
2022/10/25 02:29:27;;;;;;;3.20;1.45;;;10.70;99.90;;;;;;5159284;27;20191;-85
2022/10/25 02:32:06;;;;;;;2.17;1.70;;;10.80;99.90;;;;;;5149266;27;20282;-85
2022/10/25 02:34:34;;;;;;;1.80;1.30;;;10.90;99.90;;;;;;5149480;27;20411;-85
2022/10/25 02:37:12;;;;;;;1.20;1.10;;;10.80;99.90;;;;;;5149923;27;20199;-85
2022/10/25 02:39:45;;;;;;;2.53;1.15;;;10.70;99.90;;;;;;5150604;27;20187;-85
2022/10/25 02:42:36;;;;;;;2.78;1.30;;;10.70;99.90;;;;;;5156691;27;20283;-85
2022/10/25 02:45:42;;;;;;;1.30;1.20;;;10.60;99.90;;;;;;5152368;27;20273;-86
2022/10/25 02:48:09;;;;;;;3.25;1.38;;;10.60;99.90;;;;;;5153329;27;20222;-85
2022/10/25 02:50:36;;;;;;;1.40;1.30;;;10.70;99.90;;;;;;5152421;27;20274;-85
2022/10/25 02:53:03;;;;;;;1.10;0.95;;;10.80;99.90;;;;;;5136918;27;20620;-85
2022/10/25 02:55:38;;;;;;;2.10;1.20;;;10.90;99.90;;;;;;5163992;27;20638;-85
2022/10/25 02:58:05;;;;;;;1.52;1.40;;;11.00;99.90;;;;;;5145938;27;20202;-84
2022/10/25 03:00:42;;;;;;;1.85;1.30;;;11.20;99.90;;;;;;5158812;27;20277;-84
2022/10/25 03:03:18;;;;;;;2.88;1.30;;;11.30;99.90;;;;;;5158136;27;20262;-85
2022/10/25 03:05:55;;;;;;;1.73;1.05;;;11.30;99.90;;;;;;5166569;27;20751;-85
2022/10/25 03:08:37;;;;;;;0.98;0.95;;;11.40;99.90;;;;;;5162214;27;20269;-85
2022/10/25 03:11:09;;;;;;;2.45;1.20;;;11.30;99.90;;;;;;5158800;27;20283;-85
2022/10/25 03:13:54;;;;;;;2.42;1.20;;;11.20;99.90;;;;;;5162449;27;20617;-85
2022/10/25 03:16:48;;;;;;;1.42;1.10;;;11.20;99.90;;;;;;5160478;27;20262;-85
2022/10/25 03:19:15;;;;;;;1.33;1.10;;;11.20;99.90;;;;;;5149853;27;20629;-85
2022/10/25 03:21:54;;;;;;;1.40;1.08;;;11.20;99.90;;;;;;5156531;27;20251;-87
2022/10/25 03:24:42;;;;;;;2.45;1.30;;;11.20;99.90;;;;;;5151666;27;20279;-85
2022/10/25 03:27:54;;;;;;;1.38;1.20;;;11.30;99.90;;;;;;5173313;27;20233;-85
2022/10/25 03:30:43;;;;;;;1.48;1.20;;;11.50;99.90;;;;;;5147820;27;20194;-85
2022/10/25 03:37:00;;;;;;;3.53;1.30;;;11.60;99.90;;;;;;5145216;27;20203;-85
2022/10/25 03:39:30;;;;;;;3.88;1.10;;;11.60;99.90;;;;;;5156637;27;20221;-85
2022/10/25 03:45:43;;;;;;;4.80;1.10;;;11.70;99.90;;;;;;5158400;27;20631;-85
2022/10/25 03:49:00;;;;;;;1.50;1.10;;;11.60;99.90;;;;;;5158090;27;20218;-85
2022/10/25 03:51:52;;;;;;;1.23;0.90;;;11.60;99.90;;;;;;5147992;27;20221;-86
2022/10/25 03:54:25;;;;;;;0.85;0.85;;;11.60;99.90;;;;;;5148681;27;20245;-85
2022/10/25 03:57:01;;;;;;;1.02;0.80;;;11.60;99.90;;;;;;5151433;27;20620;-85
2022/10/25 03:59:30;;;;;;;1.27;1.17;;;11.60;99.90;;;;;;5166139;27;20229;-85
2022/10/25 04:02:42;;;;;;;1.77;1.10;;;11.60;99.90;;;;;;5176926;27;20275;-85
2022/10/25 04:05:33;;;;;;;1.70;0.93;;;11.60;99.90;;;;;;5148937;27;20242;-85
2022/10/25 04:11:36;;;;;;;2.15;1.17;;;11.60;99.90;;;;;;5171203;27;20169;-86
2022/10/25 04:14:44;;;;;;;2.28;1.10;;;11.60;99.90;;;;;;5165456;27;20748;-85
2022/10/25 04:27:38;;;;;;;1.42;1.00;;;11.80;99.90;;;;;;5163635;27;20207;-85
2022/10/25 04:30:07;;;;;;;1.17;1.08;;;11.70;99.90;;;;;;5146671;27;20226;-85
2022/10/25 04:39:48;;;;;;;2.78;1.20;;;11.80;99.90;;;;;;5151395;27;20270;-85
2022/10/25 04:42:19;;;;;;;1.38;1.10;;;11.60;99.90;;;;;;5162361;27;20214;-85
2022/10/25 04:45:36;;;;;;;2.28;1.13;;;11.50;99.90;;;;;;5158520;27;20190;-85
2022/10/25 04:48:05;;;;;;;1.23;1.13;;;11.40;99.90;;;;;;5146385;27;20226;-85
2022/10/25 04:50:31;;;;;;;1.55;1.20;;;11.30;99.90;;;;;;5145422;27;20278;-85
2022/10/25 04:53:00;;;;;;;1.38;1.10;;;11.20;99.90;;;;;;5155366;27;20269;-86
2022/10/25 04:55:32;;;;;;;5.53;1.27;;;11.20;99.90;;;;;;5147713;27;20289;-84
2022/10/25 04:57:59;;;;;;;5.15;1.30;;;11.10;99.90;;;;;;5149988;27;20187;-85
2022/10/25 05:00:26;;;;;;;1.27;1.17;;;11.00;99.90;;;;;;5147613;27;20197;-85
2022/10/25 05:02:53;;;;;;;3.58;1.30;;;11.00;99.90;;;;;;5141139;27;20569;-86
2022/10/25 05:05:34;;;;;;;3.38;1.60;;;11.00;99.90;;;;;;5143524;27;20294;-85
2022/10/25 05:08:12;;;;;;;2.53;1.50;;;11.00;99.90;;;;;;5156868;27;20234;-85
2022/10/25 05:10:42;;;;;;;2.95;1.40;;;10.90;99.90;;;;;;5149448;27;20187;-86
2022/10/25 05:13:43;;;;;;;9.48;6.63;;;10.90;99.90;;;;;;5149201;27;20548;-85
2022/10/25 05:16:19;;;;;;;2.72;2.13;;;11.00;99.90;;;;;;5152562;27;20205;-84
2022/10/25 05:18:49;;;;;;;5.72;4.38;;;11.00;99.90;;;;;;5149368;27;20221;-85
2022/10/25 05:21:54;;;;;;;9.23;3.40;;;11.10;99.90;;;;;;5152449;27;20190;-84
2022/10/25 05:24:23;;;;;;;5.75;4.35;;;11.10;99.90;;;;;;5155291;27;20785;-86
2022/10/25 05:26:50;;;;;;;2.80;1.35;;;11.20;99.90;;;;;;5152396;27;20215;-85
2022/10/25 05:29:18;;;;;;;2.80;1.55;;;11.10;99.90;;;;;;5151581;27;20222;-86
2022/10/25 05:31:45;;;;;;;3.38;1.50;;;11.20;99.90;;;;;;5151621;27;20222;-86
2022/10/25 05:44:32;;;;;;;3.92;2.30;;;11.40;99.90;;;;;;5168907;27;20247;-84
2022/10/25 05:57:30;;;;;;;3.65;1.48;;;11.60;99.90;;;;;;5146030;27;20210;-84
2022/10/25 06:04:06;;;;;;;1.90;1.20;;;11.60;99.90;;;;;;5145150;27;20217;-84
2022/10/25 06:10:11;;;;;;;4.75;2.58;;;11.60;99.90;;;;;;5141767;27;20208;-84
2022/10/25 06:16:04;;;;;;;3.47;2.10;;;11.80;99.90;;;;;;5153081;27;20720;-84
2022/10/25 06:25:29;;;;;;;2.65;1.38;;;12.00;99.90;;;;;;5145565;27;20212;-84
2022/10/25 06:27:56;;;;;;;5.50;2.20;;;11.90;99.90;;;;;;5156157;27;20630;-84
2022/10/25 06:33:47;;;;;;;3.00;1.40;;;12.00;99.90;;;;;;5145703;27;20165;-84
2022/10/25 06:36:20;;;;;;;2.80;1.60;;;12.00;99.90;;;;;;5151495;27;20651;-85
2022/10/25 06:46:24;;;;;;;2.60;1.65;;;12.00;99.90;;;;;;5156393;27;20231;-84
2022/10/25 06:52:32;;;;;;;2.25;1.25;;;12.00;99.90;;;;;;5173427;27;20181;-84
2022/10/25 06:55:01;;;;;;;4.90;1.55;;;11.90;99.90;;;;;;5164098;27;20278;-84
2022/10/25 06:57:30;;;;;;;2.67;1.98;;;11.80;99.90;;;;;;5133070;27;20290;-86
2022/10/25 06:59:59;;;;;;;3.05;1.88;;;12.00;99.90;;;;;;5160963;27;20228;-85
2022/10/25 07:03:00;;;;;;;4.32;2.00;;;12.00;99.90;;;;;;5158541;27;20214;-84
2022/10/25 07:05:31;;;;;;;1.50;1.40;;;12.10;99.90;;;;;;5155494;27;20322;-85
2022/10/25 07:08:00;;;;;;;2.65;1.65;;;12.20;99.90;;;;;;5160763;27;20223;-84
2022/10/25 07:11:00;;;;;;;2.78;1.50;;;12.20;99.90;;;;;;5154155;27;20194;-84
2022/10/25 07:13:32;;;;;;;3.08;1.65;;;12.30;99.90;;;;;;5166878;27;20273;-84
2022/10/25 07:16:03;;;;;;;2.83;1.27;;;12.40;99.90;;;;;;5148980;27;20214;-85
2022/10/25 07:18:48;;;;;;;3.92;1.60;;;12.60;99.90;;;;;;5149822;27;20226;-85
2022/10/25 07:21:43;;;;;;;2.47;1.42;;;12.80;99.90;;;;;;5154636;27;20282;-84
2022/10/25 07:24:38;;;;;;;2.45;1.50;;;12.90;99.90;;;;;;5145804;27;20187;-85
2022/10/25 07:27:07;;;;;;;2.22;1.45;;;13.00;99.90;;;;;;5142534;27;20191;-85
2022/10/25 07:29:43;;;;;;;2.35;1.20;;;13.00;99.90;;;;;;5148767;27;20191;-85
2022/10/25 07:32:42;;;;;;;3.22;1.38;;;13.00;99.80;;;;;;5156030;27;20777;-86
2022/10/25 07:35:18;;;;;;;3.15;1.40;;;13.00;99.70;;;;;;5138909;27;20299;-86
2022/10/25 07:37:54;;;;;;;3.15;1.60;;;13.00;99.90;;;;;;5143187;27;20189;-89
2022/10/25 07:40:26;;;;;;;2.22;1.45;;;13.10;99.60;;;;;;5152398;27;20205;-86
2022/10/25 07:43:01;;;;;;;2.47;1.40;;;13.20;99.30;;;;;;5142901;27;20237;-86
2022/10/25 07:45:31;;;;;;;3.33;1.30;;;13.30;99.20;;;;;;5144772;27;20269;-87
2022/10/25 07:48:13;;;;;;;2.38;1.60;;;13.50;98.80;;;;;;5137130;27;20278;-86
2022/10/25 07:51:02;;;;;;;2.08;1.40;;;13.90;98.00;;;;;;5148541;27;20187;-86
2022/10/25 07:53:31;;;;;;;1.75;1.33;;;14.30;96.70;;;;;;5146027;27;20271;-86
2022/10/25 07:55:59;;;;;;;2.05;1.00;;;14.50;95.00;;;;;;5154995;27;20214;-85
2022/10/25 07:58:36;;;;;;;2.03;1.30;;;14.70;94.90;;;;;;5150345;27;20186;-86
2022/10/25 08:01:05;;;;;;;3.60;1.50;;;14.80;94.80;;;;;;5137880;27;20201;-86
2022/10/25 08:03:37;;;;;;;1.60;1.50;;;14.90;94.80;;;;;;5140643;27;20272;-86
2022/10/25 08:06:13;;;;;;;2.30;1.33;;;15.10;93.50;;;;;;5138888;27;20225;-85
2022/10/25 08:09:00;;;;;;;3.67;1.30;;;15.20;92.50;;;;;;5151992;27;20192;-86
2022/10/25 08:11:28;;;;;;;2.17;1.08;;;15.30;92.30;;;;;;5146959;27;20284;-87
2022/10/25 08:13:55;;;;;;;3.53;1.30;;;15.50;91.60;;;;;;5138694;27;20287;-86
2022/10/25 08:16:30;;;;;;;2.75;1.30;;;15.50;92.10;;;;;;5154658;27;20226;-85
2022/10/25 08:19:07;;;;;;;4.10;1.30;;;15.60;92.30;;;;;;5144028;27;20201;-87
2022/10/25 08:21:37;;;;;;;1.38;1.20;;;15.60;92.70;;;;;;5167539;27;20194;-86
2022/10/25 08:24:07;;;;;;;4.00;1.20;;;15.70;92.30;;;;;;5155013;27;20289;-87
2022/10/25 08:26:44;;;;;;;2.35;1.25;;;15.80;92.30;;;;;;5139784;27;20286;-86
2022/10/25 08:29:12;;;;;;;3.47;1.55;;;15.90;91.70;;;;;;5148400;27;20720;-86
2022/10/25 08:31:48;;;;;;;4.65;1.67;;;15.90;90.30;;;;;;5153277;27;20650;-86
2022/10/25 08:34:18;;;;;;;5.90;1.55;;;16.00;90.80;;;;;;5142697;27;20240;-86
2022/10/25 08:36:48;;;;;;;2.03;1.30;;;16.30;90.40;;;;;;5146542;27;20225;-86
2022/10/25 08:39:19;;;;;;;3.63;1.10;;;16.70;89.50;;;;;;5149225;27;20219;-86
2022/10/25 08:41:58;;;;;;;3.58;1.20;;;17.00;85.60;;;;;;5144283;27;20206;-86
2022/10/25 08:44:34;;;;;;;2.55;1.25;;;17.60;78.90;;;;;;5144795;27;20273;-86
2022/10/25 08:47:13;;;;;;;2.00;1.20;;;18.20;76.00;;;;;;5143213;27;20199;-87
2022/10/25 08:49:50;;;;;;;1.95;0.98;;;19.00;58.80;;;;;;5138284;27;20549;-85
2022/10/25 08:52:24;;;;;;;1.70;1.08;;;19.40;55.40;;;;;;5143000;27;20689;-82
2022/10/25 08:54:52;;;;;;;2.15;1.40;;;19.80;53.80;;;;;;5156094;27;20354;-81
2022/10/25 08:57:24;;;;;;;4.20;1.30;;;20.60;47.90;;;;;;5152962;27;20298;-83
2022/10/25 08:59:58;;;;;;;4.93;1.35;;;21.40;40.10;;;;;;5150334;27;20287;-83
2022/10/25 09:02:36;;;;;;;2.22;1.35;;;22.10;33.80;;;;;;5150393;27;20198;-83
2022/10/25 09:05:16;;;;;;;5.05;1.33;;;22.80;32.70;;;;;;5154635;27;20236;-84
2022/10/25 09:08:24;;;;;;;2.38;1.23;;;23.80;30.50;;;;;;5155841;27;20194;-84
2022/10/25 09:11:04;;;;;;;4.32;1.50;;;24.60;27.40;;;;;;5138730;27;20632;-85
2022/10/25 09:13:42;;;;;;;2.13;1.45;;;25.90;20.30;;;;;;5151405;27;20203;-85
2022/10/25 09:16:32;;;;;;;4.07;1.70;;;25.50;20.80;;;;;;5149289;27;20535;-85
2022/10/25 09:18:59;;;;;;;3.72;1.70;;;25.40;21.70;;;;;;5135627;27;20570;-85
2022/10/25 09:21:34;;;;;;;3.60;1.63;;;25.70;20.60;;;;;;5146772;27;20206;-85
2022/10/25 09:24:16;;;;;;;3.75;1.92;;;26.50;18.40;;;;;;5141592;27;20201;-84
2022/10/25 09:26:49;;;;;;;2.95;1.85;;;26.90;18.60;;;;;;5148093;27;20673;-87
2022/10/25 09:29:24;;;;;;;2.38;1.90;;;26.50;17.50;;;;;;5155616;27;20546;-84
2022/10/25 09:31:58;;;;;;;3.13;2.08;;;26.30;18.90;;;;;;5148032;27;20679;-84
2022/10/25 09:34:43;;;;;;;1.73;1.50;;;25.60;20.30;;;;;;5148356;27;20192;-84
2022/10/25 09:37:25;;;;;;;2.78;1.60;;;25.70;19.90;;;;;;5140179;27;20212;-85
2022/10/25 09:40:05;;;;;;;3.63;1.70;;;25.40;19.90;;;;;;5146377;27;20202;-85
2022/10/25 09:42:40;;;;;;;3.63;1.60;;;24.90;20.70;;;;;;5145370;27;20201;-84
2022/10/25 09:45:18;;;;;;;3.67;1.80;;;25.40;19.70;;;;;;5146074;27;20189;-85
2022/10/25 09:47:51;;;;;;;3.38;1.42;;;25.20;20.10;;;;;;5143833;27;20196;-85
2022/10/25 09:50:24;;;;;;;2.42;1.30;;;24.40;20.00;;;;;;5137761;27;20285;-85
2022/10/25 09:53:09;;;;;;;4.35;1.88;;;23.90;21.70;;;;;;5142464;27;20278;-85
2022/10/25 09:55:44;;;;;;;2.17;1.40;;;23.90;23.40;;;;;;5138487;27;20235;-85
2022/10/25 09:58:19;;;;;;;5.47;1.65;;;23.60;23.00;;;;;;5144145;27;20185;-85
2022/10/25 10:00:52;;;;;;;2.38;1.52;;;23.20;22.90;;;;;;5144514;27;20205;-86
2022/10/25 10:03:29;;;;;;;1.40;1.30;;;23.20;22.90;;;;;;5148841;27;20195;-84
2022/10/25 10:06:03;;;;;;;3.50;1.60;;;22.70;23.10;;;;;;5136840;27;20221;-87
2022/10/25 10:08:34;;;;;;;1.85;1.48;;;23.10;22.50;;;;;;5152759;27;20218;-84
2022/10/25 10:11:16;;;;;;;2.50;1.60;;;22.60;25.10;;;;;;5148245;27;20198;-84
2022/10/25 10:13:47;;;;;;;2.67;1.20;;;22.40;25.40;;;;;;5148284;27;20258;-84
2022/10/25 10:16:30;;;;;;;3.17;1.35;;;22.60;24.00;;;;;;5145061;27;20222;-86
2022/10/25 10:19:14;;;;;;;2.70;1.60;;;23.00;23.50;;;;;;5157157;27;20186;-84
2022/10/25 10:21:43;;;;;;;1.70;1.27;;;23.20;23.10;;;;;;5152169;27;20277;-85
2022/10/25 10:24:19;;;;;;;2.10;1.30;;;23.20;22.20;;;;;;5145247;27;20213;-83
2022/10/25 10:26:50;;;;;;;2.22;1.30;;;22.80;24.30;;;;;;5156134;27;20228;-83
2022/10/25 10:29:20;;;;;;;2.63;1.20;;;22.80;23.50;;;;;;5148060;27;20198;-83
2022/10/25 10:31:51;;;;;;;2.78;1.40;;;22.80;22.50;;;;;;5153955;27;20194;-85
2022/10/25 10:34:30;;;;;;;2.83;1.30;;;22.20;24.20;;;;;;5152629;27;20194;-83
2022/10/25 10:37:05;;;;;;;1.60;1.42;;;21.80;26.30;;;;;;5142830;27;20213;-84
2022/10/25 10:39:48;;;;;;;1.52;1.20;;;21.90;25.70;;;;;;5144959;27;20683;-83
2022/10/25 10:42:20;;;;;;;2.25;1.20;;;21.80;26.30;;;;;;5144933;27;20199;-83
2022/10/25 10:45:14;;;;;;;2.40;1.40;;;21.70;28.50;;;;;;5153411;27;20212;-83
2022/10/25 10:47:46;;;;;;;2.20;1.23;;;21.50;28.50;;;;;;5142085;27;20220;-83
2022/10/25 10:50:23;;;;;;;3.13;1.30;;;21.90;25.80;;;;;;5147235;27;20229;-89
2022/10/25 10:52:57;;;;;;;4.03;1.35;;;22.40;24.40;;;;;;5146797;27;20548;-83
2022/10/25 10:55:28;;;;;;;3.20;1.25;;;21.70;27.70;;;;;;5141534;27;20583;-82
2022/10/25 10:58:04;;;;;;;3.10;1.15;;;21.00;25.60;;;;;;5156746;27;20214;-83
2022/10/25 11:00:37;;;;;;;2.90;1.25;;;20.60;29.00;;;;;;5144440;27;20190;-84
2022/10/25 11:03:05;;;;;;;2.95;1.60;;;20.00;27.40;;;;;;5148744;27;20235;-84
2022/10/25 11:05:34;;;;;;;2.63;1.23;;;19.60;28.60;;;;;;5147936;27;20239;-85
2022/10/25 11:08:18;;;;;;;2.30;1.38;;;19.50;31.60;;;;;;5143839;27;20202;-89
2022/10/25 11:10:49;;;;;;;2.95;1.10;;;19.40;31.60;;;;;;5150792;27;20190;-83
2022/10/25 11:13:21;;;;;;;1.40;1.10;;;19.30;33.10;;;;;;5146904;27;20282;-83
2022/10/25 11:16:17;;;;;;;2.55;1.08;;;19.30;31.50;;;;;;5143854;27;20218;-86
2022/10/25 11:19:37;;;;;;;3.85;1.13;;;19.00;34.60;;;;;;5140408;27;20206;-85
2022/10/25 11:22:42;;;;;;;2.33;0.93;;;18.90;32.90;;;;;;4996206;28;20619;-86
2022/10/25 11:25:31;;;;;;;2.42;1.10;;;19.30;33.90;;;;;;4959665;28;20211;-86
2022/10/25 11:28:18;;;;;;;2.67;1.20;;;19.50;31.60;;;;;;4994916;28;20295;-87
2022/10/25 11:30:54;;;;;;;2.63;1.50;;;19.60;31.70;;;;;;4978535;28;20775;-86
2022/10/25 11:33:48;;;;;;;1.75;1.17;;;19.50;31.60;;;;;;4991434;28;20933;-86
2022/10/25 11:36:51;;;;;;;3.15;1.33;;;19.60;31.70;;;;;;4992716;28;20227;-86
2022/10/25 11:39:36;;;;;;;2.58;1.45;;;19.70;31.80;;;;;;4993763;28;20634;-87
2022/10/25 11:42:39;;;;;;;2.30;1.20;;;19.50;31.70;;;;;;4985307;28;20202;-86
2022/10/25 11:45:48;;;;;;;1.95;1.38;;;19.40;31.60;;;;;;4916238;29;20242;-88
2022/10/25 11:48:41;;;;;;;4.35;1.02;;;19.20;31.40;;;;;;4916400;29;20214;-87
2022/10/25 11:51:25;;;;;;;2.42;1.20;;;18.80;31.00;;;;;;4907780;29;20661;-86
2022/10/25 11:54:10;;;;;;;2.65;1.10;;;18.80;31.00;;;;;;4917665;29;20245;-88
2022/10/25 11:56:53;;;;;;;2.58;1.30;;;18.60;34.20;;;;;;4960868;28;20347;-87
2022/10/25 11:59:30;;;;;;;7.90;1.40;;;18.50;32.40;;;;;;5014342;28;20208;-86
2022/10/25 12:02:39;;;;;;;3.13;1.30;;;18.40;33.40;;;;;;5046727;28;20201;-86
2022/10/25 12:05:27;;;;;;;6.32;1.45;;;18.20;34.10;;;;;;5028400;28;20214;-86
2022/10/25 12:08:25;;;;;;;2.17;1.17;;;18.10;35.20;;;;;;5044803;28;20305;-87
2022/10/25 12:11:26;;;;;;;2.70;1.17;;;18.00;36.60;;;;;;5046538;28;20301;-89
2022/10/25 12:14:18;;;;;;;3.05;1.23;;;17.90;37.80;;;;;;5038830;28;20205;-86
2022/10/25 12:16:49;;;;;;;4.13;1.20;;;17.90;39.30;;;;;;5046847;28;20324;-85
2022/10/25 12:19:23;;;;;;;3.00;1.25;;;17.80;38.20;;;;;;5044807;28;20193;-87
2022/10/25 12:22:13;;;;;;;1.85;1.20;;;17.60;39.00;;;;;;5076304;27;20202;-86
2022/10/25 12:24:47;;;;;;;2.67;1.20;;;17.70;40.00;;;;;;5138265;27;20191;-86
2022/10/25 12:27:17;;;;;;;1.67;1.10;;;17.90;39.30;;;;;;5142540;27;20212;-86
2022/10/25 12:29:49;;;;;;;2.15;1.02;;;17.90;38.70;;;;;;5146618;27;20597;-88
2022/10/25 12:32:37;;;;;;;2.90;1.50;;;18.10;38.90;;;;;;5141948;27;20195;-86
2022/10/25 12:35:17;;;;;;;2.85;1.30;;;18.30;38.30;;;;;;5150644;27;20201;-87
2022/10/25 12:37:49;;;;;;;2.53;1.23;;;18.50;36.50;;;;;;5145364;27;20209;-86
2022/10/25 12:40:44;;;;;;;3.67;1.38;;;18.70;33.90;;;;;;5139182;27;20210;-87
2022/10/25 12:43:19;;;;;;;2.42;1.10;;;18.60;35.90;;;;;;5141518;27;20213;-86
2022/10/25 12:46:03;;;;;;;3.38;1.10;;;18.60;34.90;;;;;;5142664;27;20193;-85
2022/10/25 12:49:03;;;;;;;2.25;1.20;;;18.60;33.10;;;;;;5147053;27;20269;-86
2022/10/25 12:52:16;;;;;;;2.65;1.20;;;18.50;34.10;;;;;;5148971;27;20195;-86
2022/10/25 12:55:21;;;;;;;3.75;1.38;;;18.50;35.00;;;;;;5143306;27;20221;-85
2022/10/25 12:57:59;;;;;;;4.07;1.30;;;18.50;35.30;;;;;;5143998;27;20206;-85
2022/10/25 13:00:43;;;;;;;2.97;1.35;;;18.30;36.50;;;;;;5136903;27;20197;-85
2022/10/25 13:03:48;;;;;;;2.67;1.30;;;18.30;37.70;;;;;;5145554;27;20707;-87
2022/10/25 13:06:36;;;;;;;1.88;1.10;;;18.30;38.30;;;;;;5148101;27;20297;-86
2022/10/25 13:09:07;;;;;;;3.92;1.40;;;18.20;38.20;;;;;;5134418;27;20287;-89
2022/10/25 13:11:41;;;;;;;5.35;1.70;;;18.10;37.10;;;;;;5143308;27;20189;-86
2022/10/25 13:14:28;;;;;;;3.85;1.30;;;18.20;39.30;;;;;;5145268;27;20197;-87
2022/10/25 13:17:26;;;;;;;2.33;1.20;;;18.30;37.10;;;;;;5139192;27;20213;-87
2022/10/25 13:20:35;;;;;;;4.05;1.25;;;18.20;36.30;;;;;;5143653;27;20722;-87
2022/10/25 13:23:48;;;;;;;4.03;1.20;;;18.30;36.40;;;;;;5142812;27;20203;-87
2022/10/25 13:26:24;;;;;;;3.22;1.30;;;18.40;34.20;;;;;;5134794;27;20223;-86
2022/10/25 13:29:33;;;;;;;4.00;1.30;;;18.50;35.50;;;;;;5137900;27;20197;-87
2022/10/25 13:32:15;;;;;;;3.25;1.20;;;18.50;33.80;;;;;;5064466;28;20233;-87
2022/10/25 13:34:43;;;;;;;2.13;1.20;;;18.40;33.90;;;;;;5059523;28;20201;-86
2022/10/25 13:37:42;;;;;;;3.20;1.20;;;18.50;33.20;;;;;;5064550;28;20229;-87
2022/10/25 13:40:22;;;;;;;4.30;1.23;;;18.60;33.20;;;;;;4981274;28;20279;-87
2022/10/25 13:43:18;;;;;;;1.83;1.30;;;18.50;32.90;;;;;;4980916;28;20229;-88
2022/10/25 13:46:11;;;;;;;3.38;1.10;;;18.50;34.00;;;;;;4984943;28;20225;-86
2022/10/25 13:48:41;;;;;;;2.83;1.30;;;18.50;34.20;;;;;;4992564;28;20238;-86
2022/10/25 13:51:31;;;;;;;2.75;1.10;;;18.50;33.60;;;;;;4994685;28;20233;-87
2022/10/25 13:54:36;;;;;;;2.40;1.02;;;18.50;33.20;;;;;;4989832;28;20199;-87
2022/10/25 13:57:37;;;;;;;2.88;1.10;;;18.40;33.10;;;;;;4985077;28;20259;-87
2022/10/25 14:04:07;;;;;;;3.05;1.08;;;18.10;33.30;;;;;;4985241;28;20690;-87
2022/10/25 14:06:40;;;;;;;2.75;1.10;;;18.10;34.10;;;;;;4984648;28;20235;-87
2022/10/25 14:09:54;;;;;;;2.38;1.00;;;18.00;34.20;;;;;;5038560;28;20644;-87
2022/10/25 14:12:39;;;;;;;5.55;1.40;;;18.00;35.40;;;;;;5085727;28;20247;-87
2022/10/25 14:15:43;;;;;;;3.17;1.30;;;18.00;35.80;;;;;;5092878;28;20593;-87
2022/10/25 14:18:43;;;;;;;2.30;1.10;;;17.90;35.30;;;;;;5155168;27;20210;-87
2022/10/25 14:24:40;;;;;;;5.13;1.20;;;17.90;35.50;;;;;;5140990;27;20166;-87
2022/10/25 14:31:13;;;;;;;4.05;1.30;;;17.80;36.40;;;;;;5140912;27;20196;-88
2022/10/25 14:37:14;;;;;;;4.85;1.27;;;17.70;37.80;;;;;;5153832;27;20633;-88
2022/10/25 14:39:53;;;;;;;2.00;1.17;;;17.50;39.10;;;;;;5144348;27;20226;-91
2022/10/25 14:46:12;;;;;;;3.38;1.10;;;17.30;40.70;;;;;;5161142;27;20174;-86
2022/10/25 14:49:31;;;;;;;2.95;1.10;;;17.20;40.20;;;;;;5161247;27;20239;-87
2022/10/25 14:52:07;;;;;;;2.40;1.08;;;17.20;42.00;;;;;;5160643;27;20270;-87
2022/10/25 14:58:06;;;;;;;1.98;1.20;;;17.20;41.70;;;;;;5160497;27;20202;-88
2022/10/25 15:04:02;;;;;;;3.30;0.95;;;17.20;40.90;;;;;;5156852;27;20269;-87
2022/10/25 15:09:59;;;;;;;3.03;1.20;;;17.00;40.20;;;;;;5141148;27;20211;-87
2022/10/25 15:19:20;;;;;;;2.33;1.10;;;16.80;49.20;;;;;;5140873;27;20202;-87
2022/10/25 15:21:52;;;;;;;4.05;1.40;;;16.60;50.70;;;;;;5154800;27;20194;-87
2022/10/25 15:27:45;;;;;;;4.55;1.48;;;16.40;55.80;;;;;;5178519;27;20306;-87
2022/10/25 15:30:33;;;;;;;3.97;1.60;;;16.30;57.60;;;;;;5154856;27;20299;-88
2022/10/25 15:33:37;;;;;;;3.83;1.85;;;16.20;59.90;;;;;;5150092;27;20206;-87
2022/10/25 15:36:21;;;;;;;3.78;2.08;;;16.20;68.10;;;;;;5145389;27;20232;-88
2022/10/25 15:39:19;;;;;;;5.63;2.80;;;16.00;72.60;;;;;;5153347;27;20221;-88
2022/10/25 15:41:46;;;;;;;2.75;2.20;;;15.90;76.30;;;;;;5153195;27;20274;-90
2022/10/25 15:44:13;;;;;;;58.28;44.80;;;15.80;77.80;;;;;;5119762;27;20289;-89
2022/10/25 15:46:40;;;;;;;27.25;20.02;;;15.70;77.80;;;;;;5136912;27;20202;-91
2022/10/25 15:49:10;;;;;;;15.65;9.02;;;15.70;77.80;;;;;;5157045;27;20734;-88
2022/10/25 15:55:20;;;;;;;14.40;11.02;;;15.60;77.70;;;;;;5160816;27;20177;-89
2022/10/25 16:13:27;;;;;;;42.67;33.40;;;14.90;87.00;;;;;;5144218;27;20251;-89
2022/10/25 16:16:01;;;;;;;32.25;26.27;;;14.90;87.30;;;;;;5150264;27;20198;-89